Time;durP1;ratioP1;P1;durP2;ratioP2;P2;SDS_P1;SDS_P2;PMS_P1;PMS_P2;Temp;Humidity;BMP_temperature;BMP_pressure;BME280_temperature;BME280_humidity;BME280_pressure;Samples;Min_cycle;Max_cycle;Signal;HPM_P1;HPM_P2
2024/03/16 00:00:34;;;;;;;0.40;0.40;;;8.80;99.90;;;;;;5094316;28;20234;-64
2024/03/16 00:03:00;;;;;;;0.60;0.60;;;8.80;99.90;;;;;;5094252;28;20237;-62
2024/03/16 00:05:27;;;;;;;0.37;0.37;;;8.80;99.90;;;;;;5094022;28;20234;-63
2024/03/16 00:07:53;;;;;;;0.40;0.40;;;8.80;99.90;;;;;;5093985;28;20172;-64
2024/03/16 00:10:19;;;;;;;0.40;0.40;;;8.80;99.90;;;;;;5093789;28;20216;-63
2024/03/16 00:12:45;;;;;;;2.53;0.80;;;8.70;99.90;;;;;;5094095;28;20203;-63
2024/03/16 00:15:10;;;;;;;0.40;0.40;;;8.60;99.90;;;;;;5093926;28;20434;-63
2024/03/16 00:17:36;;;;;;;0.40;0.40;;;8.60;99.90;;;;;;5093803;28;20204;-63
2024/03/16 00:20:05;;;;;;;0.40;0.40;;;8.60;99.90;;;;;;5093654;28;20252;-64
2024/03/16 00:22:31;;;;;;;0.40;0.40;;;8.50;99.90;;;;;;5093837;28;20177;-63
2024/03/16 00:24:57;;;;;;;0.43;0.43;;;8.40;99.90;;;;;;5093535;28;20197;-63
2024/03/16 00:27:23;;;;;;;0.60;0.57;;;8.50;99.90;;;;;;5093924;28;20195;-62
2024/03/16 00:29:49;;;;;;;0.40;0.40;;;8.40;99.90;;;;;;5093379;28;20181;-63
2024/03/16 00:32:15;;;;;;;0.57;0.40;;;8.30;99.90;;;;;;5093769;28;20259;-62
2024/03/16 00:34:41;;;;;;;0.40;0.40;;;8.30;99.90;;;;;;5093483;28;20184;-63
2024/03/16 00:37:06;;;;;;;0.37;0.37;;;8.40;99.90;;;;;;5075298;28;20204;-62
2024/03/16 00:39:32;;;;;;;1.27;0.50;;;8.60;99.90;;;;;;5093188;28;20410;-63
2024/03/16 00:41:58;;;;;;;0.40;0.40;;;8.60;99.90;;;;;;5093451;28;20161;-63
2024/03/16 00:44:30;;;;;;;0.50;0.50;;;8.50;99.90;;;;;;5093507;28;20183;-63
2024/03/16 00:46:56;;;;;;;0.40;0.40;;;8.70;99.90;;;;;;5093391;28;20259;-63
2024/03/16 00:49:21;;;;;;;0.57;0.50;;;8.60;99.90;;;;;;5093014;28;20260;-63
2024/03/16 00:51:47;;;;;;;0.60;0.60;;;8.60;99.90;;;;;;5093321;28;20179;-62
2024/03/16 00:54:12;;;;;;;0.70;0.40;;;8.90;99.90;;;;;;5093123;28;20177;-62
2024/03/16 00:56:38;;;;;;;4.67;0.60;;;8.80;99.90;;;;;;5092473;28;20186;-63
2024/03/16 00:59:04;;;;;;;0.50;0.50;;;8.80;99.90;;;;;;5093003;28;20179;-63
2024/03/16 01:01:34;;;;;;;0.40;0.40;;;8.80;99.90;;;;;;5093129;28;20449;-63
2024/03/16 01:04:00;;;;;;;0.60;0.50;;;8.80;99.90;;;;;;5093033;28;20402;-62
2024/03/16 01:06:26;;;;;;;0.50;0.50;;;8.70;99.90;;;;;;5092844;28;20193;-63
2024/03/16 01:08:52;;;;;;;0.50;0.50;;;8.70;99.90;;;;;;5092663;28;20176;-63
2024/03/16 01:11:18;;;;;;;0.73;0.70;;;8.80;99.90;;;;;;5093100;28;20410;-63
2024/03/16 01:13:44;;;;;;;0.60;0.60;;;8.70;99.90;;;;;;5092901;28;20547;-64
2024/03/16 01:16:10;;;;;;;0.83;0.83;;;8.70;99.90;;;;;;5092780;28;20418;-63
2024/03/16 01:18:35;;;;;;;2.90;1.00;;;8.90;99.90;;;;;;5092374;28;20533;-63
2024/03/16 01:21:01;;;;;;;0.60;0.60;;;9.00;99.90;;;;;;5092697;28;20548;-63
2024/03/16 01:23:27;;;;;;;0.80;0.80;;;9.10;99.90;;;;;;5092687;28;20638;-63
2024/03/16 01:25:52;;;;;;;0.73;0.60;;;9.20;99.90;;;;;;5092558;28;20203;-63
2024/03/16 01:28:18;;;;;;;0.60;0.40;;;9.30;99.90;;;;;;5092395;28;20702;-64
2024/03/16 01:30:44;;;;;;;0.70;0.50;;;9.30;99.90;;;;;;5092612;28;20172;-63
2024/03/16 01:33:10;;;;;;;0.50;0.50;;;9.30;99.90;;;;;;5092471;28;20551;-62
2024/03/16 01:35:36;;;;;;;1.58;0.80;;;9.30;99.90;;;;;;5092340;28;20253;-63
2024/03/16 01:38:02;;;;;;;0.60;0.60;;;9.20;99.90;;;;;;5092180;28;20189;-64
2024/03/16 01:40:32;;;;;;;0.68;0.50;;;9.00;99.90;;;;;;5091940;28;20715;-63
2024/03/16 01:42:58;;;;;;;2.08;0.90;;;9.00;99.90;;;;;;5092329;28;20168;-63
2024/03/16 01:45:24;;;;;;;0.80;0.80;;;8.90;99.90;;;;;;5092178;28;20234;-63
2024/03/16 01:47:52;;;;;;;3.30;0.67;;;8.90;99.90;;;;;;5092142;28;20653;-62
2024/03/16 01:50:21;;;;;;;2.08;1.95;;;8.90;99.90;;;;;;5091957;28;20669;-62
2024/03/16 01:52:48;;;;;;;0.50;0.50;;;9.00;99.90;;;;;;5092234;28;20177;-63
2024/03/16 01:55:15;;;;;;;0.82;0.80;;;9.00;99.90;;;;;;5092241;28;20577;-63
2024/03/16 01:57:40;;;;;;;0.95;0.63;;;9.00;99.90;;;;;;5092007;28;20220;-63
2024/03/16 02:00:11;;;;;;;0.70;0.60;;;9.20;99.90;;;;;;5091863;28;20169;-63
2024/03/16 02:02:38;;;;;;;1.38;0.52;;;9.20;99.90;;;;;;5092024;28;20176;-63
2024/03/16 02:05:07;;;;;;;0.63;0.50;;;9.30;99.90;;;;;;5091826;28;20188;-62
2024/03/16 02:07:38;;;;;;;0.73;0.40;;;9.40;99.90;;;;;;5090978;28;20268;-63
2024/03/16 02:10:08;;;;;;;0.63;0.63;;;9.30;99.90;;;;;;5091761;28;20650;-63
2024/03/16 02:12:34;;;;;;;4.30;0.68;;;9.30;99.90;;;;;;5091966;28;20177;-62
2024/03/16 02:15:00;;;;;;;1.05;0.70;;;9.30;99.90;;;;;;5091828;28;20197;-63
2024/03/16 02:17:26;;;;;;;0.80;0.70;;;9.40;99.90;;;;;;5091594;28;20232;-63
2024/03/16 02:19:52;;;;;;;0.50;0.50;;;9.50;99.90;;;;;;5091641;28;20574;-63
2024/03/16 02:22:19;;;;;;;1.23;0.57;;;9.60;99.90;;;;;;5091811;28;20169;-64
2024/03/16 02:24:45;;;;;;;0.60;0.60;;;9.50;99.90;;;;;;5091659;28;20321;-63
2024/03/16 02:27:11;;;;;;;1.73;0.70;;;9.50;99.90;;;;;;5091875;28;20259;-63
2024/03/16 02:29:37;;;;;;;0.77;0.70;;;9.50;99.90;;;;;;5091542;28;20256;-63
2024/03/16 02:32:07;;;;;;;0.73;0.70;;;9.50;99.90;;;;;;5091660;28;20165;-63
2024/03/16 02:34:37;;;;;;;2.17;0.73;;;9.60;99.90;;;;;;5091644;28;20215;-63
2024/03/16 02:37:03;;;;;;;0.55;0.55;;;9.60;99.90;;;;;;5091622;28;20232;-63
2024/03/16 02:39:31;;;;;;;0.50;0.50;;;9.60;99.90;;;;;;5091419;28;20177;-62
2024/03/16 02:42:02;;;;;;;0.60;0.60;;;9.60;99.90;;;;;;5091716;28;20184;-63
2024/03/16 02:44:29;;;;;;;1.10;0.82;;;9.60;99.90;;;;;;5091523;28;20193;-63
2024/03/16 02:46:55;;;;;;;0.55;0.55;;;9.50;99.90;;;;;;5091726;28;20187;-63
2024/03/16 02:49:21;;;;;;;1.33;1.27;;;9.50;99.90;;;;;;5091340;28;20173;-63
2024/03/16 02:51:50;;;;;;;0.60;0.50;;;9.50;99.90;;;;;;5091709;28;20780;-63
2024/03/16 02:54:16;;;;;;;1.98;0.95;;;9.50;99.90;;;;;;5091429;28;20180;-63
2024/03/16 02:56:42;;;;;;;2.58;1.33;;;9.60;99.90;;;;;;5091458;28;20334;-63
2024/03/16 02:59:09;;;;;;;1.00;0.63;;;9.50;99.90;;;;;;5091165;28;20244;-63
2024/03/16 03:01:35;;;;;;;1.00;0.70;;;9.40;99.90;;;;;;5091434;28;20161;-63
2024/03/16 03:04:01;;;;;;;0.50;0.50;;;9.30;99.90;;;;;;5091395;28;20171;-63
2024/03/16 03:06:27;;;;;;;0.90;0.50;;;9.10;99.90;;;;;;5091433;28;20181;-62
2024/03/16 03:08:53;;;;;;;0.90;0.40;;;9.20;99.90;;;;;;5090846;28;20229;-63
2024/03/16 03:11:20;;;;;;;2.05;0.60;;;9.30;99.90;;;;;;5091373;28;20177;-63
2024/03/16 03:13:47;;;;;;;0.63;0.63;;;9.40;99.90;;;;;;5091252;28;20169;-63
2024/03/16 03:16:19;;;;;;;2.40;0.93;;;9.50;99.90;;;;;;5091330;28;20188;-62
2024/03/16 03:18:48;;;;;;;0.60;0.60;;;9.50;99.90;;;;;;5092018;28;20544;-62
2024/03/16 03:21:15;;;;;;;0.45;0.40;;;9.50;99.90;;;;;;5095082;28;20169;-63
2024/03/16 03:23:41;;;;;;;0.52;0.52;;;9.50;99.90;;;;;;5095010;28;20178;-63
2024/03/16 03:26:08;;;;;;;1.83;0.80;;;9.50;99.90;;;;;;5094679;28;20700;-62
2024/03/16 03:28:35;;;;;;;0.50;0.50;;;9.60;99.90;;;;;;5094628;28;20665;-64
2024/03/16 03:31:01;;;;;;;0.50;0.50;;;9.60;99.90;;;;;;5094821;28;20173;-63
2024/03/16 03:33:27;;;;;;;0.40;0.40;;;9.60;99.90;;;;;;5094742;28;20267;-62
2024/03/16 03:35:52;;;;;;;0.90;0.90;;;9.60;99.90;;;;;;5094751;28;20271;-63
2024/03/16 03:38:18;;;;;;;1.83;0.60;;;9.30;99.90;;;;;;5094428;28;20200;-63
2024/03/16 03:40:43;;;;;;;0.73;0.73;;;9.20;99.90;;;;;;5094641;28;20225;-63
2024/03/16 03:43:17;;;;;;;0.60;0.60;;;9.10;99.90;;;;;;5094690;28;20206;-63
2024/03/16 03:50:56;;;;;;;0.60;0.50;;;9.30;99.90;;;;;;5094515;28;20191;-63
2024/03/16 03:53:27;;;;;;;0.70;0.70;;;9.30;99.90;;;;;;5094453;28;20169;-63
2024/03/16 03:55:53;;;;;;;0.98;0.73;;;9.30;99.90;;;;;;5094393;28;20192;-63
2024/03/16 03:58:20;;;;;;;3.75;1.17;;;9.30;99.90;;;;;;5093991;28;20208;-63
2024/03/16 04:00:47;;;;;;;1.70;0.80;;;9.30;99.90;;;;;;5094172;28;20256;-63
2024/03/16 04:03:13;;;;;;;1.20;0.95;;;9.10;99.90;;;;;;5094239;28;20165;-63
2024/03/16 04:05:39;;;;;;;1.70;0.93;;;9.10;99.90;;;;;;5094100;28;20662;-63
2024/03/16 04:08:05;;;;;;;1.93;1.10;;;9.10;99.90;;;;;;5094130;28;20180;-64
2024/03/16 04:10:32;;;;;;;4.63;1.20;;;9.10;99.90;;;;;;5094007;28;20423;-63
2024/03/16 04:12:58;;;;;;;3.00;1.17;;;9.10;99.90;;;;;;5093952;28;20185;-62
2024/03/16 04:15:25;;;;;;;0.90;0.70;;;9.20;99.90;;;;;;5093820;28;20232;-63
2024/03/16 04:17:50;;;;;;;1.83;1.20;;;9.40;99.90;;;;;;5093612;28;20678;-63
2024/03/16 04:20:22;;;;;;;3.80;1.10;;;9.40;99.90;;;;;;5093733;28;20218;-63
2024/03/16 04:22:48;;;;;;;1.52;0.93;;;9.40;99.90;;;;;;5093879;28;20406;-63
2024/03/16 04:25:15;;;;;;;0.90;0.75;;;9.40;99.90;;;;;;5093713;28;20207;-64
2024/03/16 04:27:46;;;;;;;5.00;1.00;;;9.40;99.90;;;;;;5093604;28;20180;-63
2024/03/16 04:30:13;;;;;;;1.52;0.90;;;9.50;99.90;;;;;;5092440;28;20668;-62
2024/03/16 04:32:39;;;;;;;2.53;0.70;;;9.60;99.90;;;;;;5093735;28;20720;-63
2024/03/16 04:35:05;;;;;;;1.40;0.90;;;9.50;99.90;;;;;;5093571;28;20200;-64
2024/03/16 04:37:31;;;;;;;1.15;1.05;;;9.50;99.90;;;;;;5093474;28;20196;-63
2024/03/16 04:39:58;;;;;;;2.00;1.00;;;9.50;99.90;;;;;;5093331;28;20653;-63
2024/03/16 04:42:24;;;;;;;1.77;1.08;;;9.60;99.90;;;;;;5093289;28;20407;-62
2024/03/16 04:44:49;;;;;;;3.37;0.90;;;9.50;99.90;;;;;;5093490;28;20236;-64
2024/03/16 04:47:15;;;;;;;1.37;1.10;;;9.50;99.90;;;;;;5093401;28;20630;-63
2024/03/16 04:49:40;;;;;;;2.10;1.10;;;9.40;99.90;;;;;;5093097;28;20179;-63
2024/03/16 04:52:10;;;;;;;1.73;0.90;;;9.40;99.90;;;;;;5092980;28;20252;-63
2024/03/16 04:54:35;;;;;;;1.50;1.40;;;9.40;99.90;;;;;;5093126;28;20201;-64
2024/03/16 04:57:01;;;;;;;4.53;1.67;;;9.30;99.90;;;;;;5093017;28;20258;-63
2024/03/16 04:59:27;;;;;;;1.43;1.13;;;9.20;99.90;;;;;;5092845;28;20687;-64
2024/03/16 05:01:52;;;;;;;3.53;0.87;;;9.30;99.90;;;;;;5093073;28;20173;-63
2024/03/16 05:04:18;;;;;;;1.90;0.80;;;9.30;99.90;;;;;;5092992;28;20179;-63
2024/03/16 05:06:43;;;;;;;1.27;1.07;;;9.30;99.90;;;;;;5093431;28;20171;-64
2024/03/16 05:09:09;;;;;;;16.57;1.80;;;9.40;99.90;;;;;;5092642;28;20259;-63
2024/03/16 05:11:37;;;;;;;2.80;1.10;;;9.40;99.90;;;;;;5092807;28;20217;-63
2024/03/16 05:14:07;;;;;;;1.42;1.17;;;9.50;99.90;;;;;;5092548;28;20190;-63
2024/03/16 05:16:37;;;;;;;1.48;1.13;;;9.40;99.90;;;;;;5092675;28;20543;-63
2024/03/16 05:19:04;;;;;;;1.75;1.27;;;9.30;99.90;;;;;;5092491;28;20169;-64
2024/03/16 05:21:34;;;;;;;4.07;0.73;;;9.30;99.90;;;;;;5074590;28;20173;-64
2024/03/16 05:24:01;;;;;;;2.05;1.20;;;9.30;99.90;;;;;;5092570;28;20563;-63
2024/03/16 05:26:28;;;;;;;3.40;1.30;;;9.40;99.90;;;;;;5112407;22;20698;-60
2024/03/16 05:28:54;;;;;;;1.40;1.17;;;9.40;99.90;;;;;;5091931;28;20193;-59
2024/03/16 05:31:20;;;;;;;5.60;2.00;;;9.40;99.90;;;;;;5092552;28;20580;-61
2024/03/16 05:33:46;;;;;;;2.90;1.10;;;9.40;99.90;;;;;;5092540;28;20413;-61
2024/03/16 05:36:14;;;;;;;3.30;1.33;;;9.40;99.90;;;;;;5092434;28;20563;-61
2024/03/16 05:38:43;;;;;;;0.80;0.65;;;9.50;99.90;;;;;;5092165;28;20254;-61
2024/03/16 05:41:09;;;;;;;4.03;0.95;;;9.40;99.90;;;;;;5092224;28;20177;-60
2024/03/16 05:43:35;;;;;;;3.22;1.38;;;9.50;99.90;;;;;;5092411;28;20310;-60
2024/03/16 05:46:01;;;;;;;2.00;1.40;;;9.30;99.90;;;;;;5092206;28;20659;-61
2024/03/16 05:48:27;;;;;;;4.22;1.08;;;9.40;99.90;;;;;;5091971;28;20406;-61
2024/03/16 05:50:56;;;;;;;1.23;1.07;;;9.30;99.90;;;;;;5092227;28;20322;-60
2024/03/16 05:53:23;;;;;;;7.45;1.40;;;9.20;99.90;;;;;;5092367;28;20177;-60
2024/03/16 05:55:50;;;;;;;2.15;0.80;;;9.00;99.90;;;;;;5092265;28;20197;-60
2024/03/16 05:58:16;;;;;;;1.58;0.95;;;9.00;99.90;;;;;;5091923;28;20238;-60
2024/03/16 06:00:42;;;;;;;2.05;1.38;;;9.10;99.90;;;;;;5092196;28;20190;-61
2024/03/16 06:03:07;;;;;;;8.80;1.43;;;9.10;99.90;;;;;;5091958;28;20161;-60
2024/03/16 06:05:35;;;;;;;1.03;0.50;;;9.10;99.90;;;;;;5073904;28;20431;-61
2024/03/16 06:08:02;;;;;;;1.08;0.98;;;8.90;99.90;;;;;;5092017;28;20276;-61
2024/03/16 06:10:27;;;;;;;0.65;0.65;;;8.80;99.90;;;;;;5091805;28;20185;-61
2024/03/16 06:12:53;;;;;;;1.37;0.80;;;8.80;99.90;;;;;;5092055;28;20195;-61
2024/03/16 06:15:19;;;;;;;3.83;1.10;;;8.90;99.90;;;;;;5091809;28;20234;-61
2024/03/16 06:17:44;;;;;;;2.47;1.03;;;8.90;99.90;;;;;;5091824;28;20207;-61
2024/03/16 06:20:13;;;;;;;0.80;0.70;;;9.00;99.90;;;;;;5091706;28;20391;-61
2024/03/16 06:22:41;;;;;;;4.68;1.30;;;9.10;99.90;;;;;;5091986;28;20177;-61
2024/03/16 06:25:11;;;;;;;1.58;1.20;;;9.20;99.90;;;;;;5092157;28;20302;-61
2024/03/16 06:27:43;;;;;;;4.32;0.90;;;9.30;99.90;;;;;;5091895;28;20188;-61
2024/03/16 06:30:14;;;;;;;1.33;1.05;;;9.30;99.90;;;;;;5091209;28;20185;-58
2024/03/16 06:32:55;;;;;;;2.60;1.40;;;9.30;99.90;;;;;;5091778;28;20253;-61
2024/03/16 06:35:21;;;;;;;2.55;0.73;;;9.30;99.90;;;;;;5091510;28;20192;-60
2024/03/16 06:37:46;;;;;;;0.80;0.80;;;9.20;99.90;;;;;;5091673;28;20208;-61
2024/03/16 06:40:14;;;;;;;1.00;0.83;;;9.30;99.90;;;;;;5091524;28;20411;-60
2024/03/16 06:42:39;;;;;;;1.40;1.17;;;9.30;99.90;;;;;;5091179;28;20179;-60
2024/03/16 06:45:06;;;;;;;7.37;1.70;;;9.10;99.90;;;;;;5091718;28;20165;-59
2024/03/16 06:47:31;;;;;;;0.85;0.60;;;9.10;99.90;;;;;;5091417;28;20192;-60
2024/03/16 06:49:57;;;;;;;0.60;0.60;;;8.90;99.90;;;;;;5091133;28;20177;-60
2024/03/16 06:52:24;;;;;;;0.40;0.40;;;8.90;99.90;;;;;;5091117;28;20200;-60
2024/03/16 06:54:52;;;;;;;1.77;0.40;;;9.00;99.90;;;;;;5088471;28;20279;-60
2024/03/16 06:57:17;;;;;;;1.77;0.70;;;9.10;99.90;;;;;;5095294;28;20205;-60
2024/03/16 06:59:43;;;;;;;0.60;0.60;;;9.20;99.90;;;;;;5093844;28;20177;-60
2024/03/16 07:02:08;;;;;;;2.40;0.60;;;9.30;99.90;;;;;;5094754;28;20169;-60
2024/03/16 07:04:34;;;;;;;0.50;0.50;;;9.20;99.90;;;;;;5095228;28;20227;-60
2024/03/16 07:07:00;;;;;;;0.47;0.40;;;9.40;99.90;;;;;;5094241;28;20189;-60
2024/03/16 07:09:25;;;;;;;1.67;0.57;;;9.50;99.90;;;;;;5094990;28;20184;-61
2024/03/16 07:11:51;;;;;;;1.13;1.00;;;9.50;99.90;;;;;;5094883;28;20551;-60
2024/03/16 07:14:17;;;;;;;0.60;0.60;;;9.60;99.90;;;;;;5094826;28;20173;-60
2024/03/16 07:16:43;;;;;;;0.45;0.45;;;9.60;99.90;;;;;;5095016;28;20192;-61
2024/03/16 07:19:09;;;;;;;1.23;0.50;;;9.60;99.90;;;;;;5094862;28;20168;-61
2024/03/16 07:21:34;;;;;;;0.60;0.60;;;9.50;99.90;;;;;;5095135;28;20161;-61
2024/03/16 07:24:00;;;;;;;0.77;0.70;;;9.40;99.90;;;;;;5094983;28;20165;-61
2024/03/16 07:26:26;;;;;;;1.23;1.13;;;9.40;99.90;;;;;;5094706;28;20465;-61
2024/03/16 07:28:52;;;;;;;4.15;1.58;;;9.50;99.90;;;;;;5094822;28;20194;-61
2024/03/16 07:31:17;;;;;;;2.83;0.70;;;9.40;99.90;;;;;;5094890;28;20173;-61
2024/03/16 07:33:44;;;;;;;1.90;0.77;;;9.30;99.90;;;;;;5094909;28;20169;-62
2024/03/16 07:36:10;;;;;;;2.85;1.00;;;9.30;99.90;;;;;;5094725;28;20188;-61
2024/03/16 07:38:35;;;;;;;1.57;0.73;;;9.40;99.90;;;;;;5094406;28;20246;-61
2024/03/16 07:41:03;;;;;;;0.80;0.80;;;9.40;99.90;;;;;;5094574;28;20168;-61
2024/03/16 07:43:29;;;;;;;1.00;0.90;;;9.40;99.90;;;;;;5094516;28;20184;-61
2024/03/16 07:45:55;;;;;;;2.88;0.90;;;9.50;99.90;;;;;;5094546;28;20275;-61
2024/03/16 07:48:22;;;;;;;2.33;1.10;;;9.60;99.90;;;;;;5094266;28;20251;-61
2024/03/16 07:50:47;;;;;;;2.35;0.80;;;9.60;99.90;;;;;;5094582;28;20188;-61
2024/03/16 07:53:13;;;;;;;1.50;1.10;;;9.30;99.90;;;;;;5094486;28;20185;-60
2024/03/16 07:55:42;;;;;;;1.70;1.17;;;9.50;99.90;;;;;;5093504;28;20185;-61
2024/03/16 07:58:07;;;;;;;3.25;0.75;;;9.60;99.90;;;;;;5094187;28;20253;-60
2024/03/16 08:00:33;;;;;;;3.83;1.60;;;9.60;99.90;;;;;;5093974;28;20578;-60
2024/03/16 08:02:58;;;;;;;2.93;1.13;;;9.50;99.90;;;;;;5094344;28;20165;-60
2024/03/16 08:05:24;;;;;;;1.70;0.80;;;9.60;99.90;;;;;;5094098;28;20556;-61
2024/03/16 08:07:50;;;;;;;3.97;2.10;;;9.70;99.90;;;;;;5094043;28;20549;-61
2024/03/16 08:10:15;;;;;;;5.03;2.30;;;9.80;99.90;;;;;;5094097;28;20180;-61
2024/03/16 08:12:41;;;;;;;2.60;0.97;;;10.10;99.90;;;;;;5094303;28;20252;-61
2024/03/16 08:15:08;;;;;;;4.00;1.60;;;9.80;99.90;;;;;;5094133;28;20572;-61
2024/03/16 08:17:33;;;;;;;3.83;1.15;;;9.70;99.90;;;;;;5093920;28;20454;-60
2024/03/16 08:19:59;;;;;;;4.13;1.10;;;9.80;99.90;;;;;;5093710;28;20169;-61
2024/03/16 08:22:25;;;;;;;1.60;1.03;;;9.80;99.90;;;;;;5093868;28;20248;-61
2024/03/16 08:24:50;;;;;;;3.20;0.80;;;9.60;99.90;;;;;;5093724;28;20179;-61
2024/03/16 08:27:19;;;;;;;3.53;1.80;;;9.60;99.90;;;;;;5093674;28;20262;-61
2024/03/16 08:29:45;;;;;;;2.72;1.23;;;9.60;99.90;;;;;;5093652;28;20264;-60
2024/03/16 08:32:12;;;;;;;0.87;0.67;;;9.50;99.90;;;;;;5093819;28;20693;-61
2024/03/16 08:34:38;;;;;;;1.65;1.05;;;9.50;99.90;;;;;;5093666;28;20208;-61
2024/03/16 08:37:04;;;;;;;4.53;2.00;;;9.40;99.90;;;;;;5093382;28;20233;-61
2024/03/16 08:39:31;;;;;;;2.30;1.03;;;9.50;99.90;;;;;;5093145;28;20802;-61
2024/03/16 08:41:57;;;;;;;0.73;0.73;;;9.60;99.90;;;;;;5093698;28;20202;-61
2024/03/16 08:44:23;;;;;;;3.00;2.10;;;9.70;99.90;;;;;;5093486;28;20245;-61
2024/03/16 08:46:48;;;;;;;2.50;1.10;;;9.80;99.90;;;;;;5093366;28;20188;-61
2024/03/16 08:49:14;;;;;;;2.00;0.60;;;9.90;99.90;;;;;;5075097;28;20161;-61
2024/03/16 08:51:39;;;;;;;5.27;1.30;;;10.10;99.90;;;;;;5093239;28;20173;-61
2024/03/16 08:54:05;;;;;;;3.40;1.37;;;10.10;99.90;;;;;;5093196;28;20657;-61
2024/03/16 08:56:31;;;;;;;2.00;0.90;;;10.00;99.90;;;;;;5092898;28;20196;-61
2024/03/16 08:58:57;;;;;;;2.97;1.03;;;9.70;99.90;;;;;;5092983;28;20232;-61
2024/03/16 09:01:23;;;;;;;2.15;1.00;;;9.50;99.90;;;;;;5093189;28;20410;-61
2024/03/16 09:03:49;;;;;;;0.90;0.80;;;9.60;99.90;;;;;;5093101;28;20164;-61
2024/03/16 09:06:15;;;;;;;1.90;0.63;;;9.50;99.90;;;;;;5092817;28;20427;-61
2024/03/16 09:08:40;;;;;;;2.20;1.13;;;9.50;99.90;;;;;;5092830;28;20411;-61
2024/03/16 09:11:06;;;;;;;0.43;0.43;;;9.50;99.90;;;;;;5093006;28;20546;-61
2024/03/16 09:13:33;;;;;;;0.60;0.60;;;9.70;99.90;;;;;;5092924;28;20530;-61
2024/03/16 09:16:05;;;;;;;0.70;0.70;;;9.90;99.90;;;;;;5092544;28;20197;-61
2024/03/16 09:18:38;;;;;;;4.78;2.03;;;10.10;99.90;;;;;;5092551;28;20768;-61
2024/03/16 09:21:05;;;;;;;5.55;2.95;;;10.20;99.90;;;;;;5092367;28;20185;-61
2024/03/16 09:23:31;;;;;;;6.20;1.73;;;10.30;99.90;;;;;;5092619;28;20715;-61
2024/03/16 09:25:57;;;;;;;1.70;1.58;;;10.30;99.90;;;;;;5092602;28;20300;-61
2024/03/16 09:28:23;;;;;;;2.20;1.00;;;10.10;99.90;;;;;;5092406;28;20177;-61
2024/03/16 09:30:49;;;;;;;2.23;1.07;;;9.90;99.90;;;;;;5092575;28;20711;-61
2024/03/16 09:33:15;;;;;;;2.83;0.90;;;9.70;99.90;;;;;;5092567;28;20194;-61
2024/03/16 09:35:45;;;;;;;6.38;1.13;;;9.40;99.90;;;;;;5092314;28;20201;-61
2024/03/16 09:38:12;;;;;;;3.97;1.20;;;9.30;99.90;;;;;;5073919;28;20252;-61
2024/03/16 09:40:43;;;;;;;1.25;0.85;;;9.30;99.90;;;;;;5092427;28;20164;-61
2024/03/16 09:43:12;;;;;;;1.77;0.95;;;9.40;99.90;;;;;;5092518;28;20226;-61
2024/03/16 09:45:40;;;;;;;3.63;1.02;;;9.50;99.90;;;;;;5092271;28;20674;-60
2024/03/16 09:48:09;;;;;;;1.30;1.15;;;9.50;99.90;;;;;;5092088;28;20223;-61
2024/03/16 09:50:41;;;;;;;1.02;0.80;;;9.70;99.90;;;;;;5091899;28;20252;-61
2024/03/16 09:53:09;;;;;;;2.58;0.82;;;9.80;99.90;;;;;;5092267;28;20173;-61
2024/03/16 09:55:34;;;;;;;3.50;0.75;;;10.20;99.90;;;;;;5092195;28;20203;-60
2024/03/16 09:58:00;;;;;;;2.93;1.10;;;10.50;99.90;;;;;;5091927;28;20615;-60
2024/03/16 10:00:28;;;;;;;3.53;0.80;;;11.10;99.90;;;;;;5091691;28;20173;-60
2024/03/16 10:02:53;;;;;;;1.97;1.13;;;11.80;99.90;;;;;;5092025;28;20179;-60
2024/03/16 10:05:20;;;;;;;0.97;0.97;;;12.20;99.90;;;;;;5092030;28;20493;-60
2024/03/16 10:07:47;;;;;;;0.63;0.63;;;12.10;99.20;;;;;;5091906;28;20180;-60
2024/03/16 10:10:17;;;;;;;1.70;0.70;;;11.60;99.10;;;;;;5091796;28;20439;-60
2024/03/16 10:12:43;;;;;;;1.87;0.80;;;11.30;99.90;;;;;;5091882;28;20407;-60
2024/03/16 10:15:15;;;;;;;0.83;0.83;;;11.00;99.90;;;;;;5091647;28;20411;-60
2024/03/16 10:17:41;;;;;;;1.07;0.70;;;11.00;99.90;;;;;;5091748;28;21005;-60
2024/03/16 10:20:15;;;;;;;0.70;0.70;;;10.70;99.90;;;;;;5091528;28;20502;-60
2024/03/16 10:22:50;;;;;;;0.60;0.60;;;10.80;99.90;;;;;;5091973;28;20403;-60
2024/03/16 10:25:17;;;;;;;0.80;0.80;;;11.00;99.90;;;;;;5091472;28;20399;-61
2024/03/16 10:27:44;;;;;;;2.67;0.93;;;11.00;99.90;;;;;;5091733;28;20406;-60
2024/03/16 10:30:12;;;;;;;1.27;0.95;;;11.00;99.90;;;;;;5095124;28;20181;-60
2024/03/16 10:32:49;;;;;;;2.20;1.30;;;11.00;99.90;;;;;;5096124;28;20181;-60
2024/03/16 10:35:18;;;;;;;2.47;2.37;;;10.80;99.90;;;;;;5077675;28;20418;-60
2024/03/16 10:37:45;;;;;;;0.83;0.83;;;11.00;99.90;;;;;;5095760;28;20485;-60
2024/03/16 10:40:16;;;;;;;1.00;0.83;;;10.90;99.90;;;;;;5096000;28;20407;-60
2024/03/16 10:42:44;;;;;;;1.10;1.00;;;10.80;99.90;;;;;;5095871;28;20411;-60
2024/03/16 10:45:16;;;;;;;1.70;0.80;;;10.30;99.90;;;;;;5095644;28;20674;-61
2024/03/16 10:47:52;;;;;;;0.77;0.77;;;10.50;99.90;;;;;;5095784;28;20410;-61
2024/03/16 10:50:24;;;;;;;1.27;0.73;;;10.30;99.90;;;;;;5095546;28;20441;-61
2024/03/16 10:52:51;;;;;;;2.93;1.20;;;10.60;99.90;;;;;;5095416;28;20432;-61
2024/03/16 10:55:23;;;;;;;1.40;1.00;;;11.60;99.90;;;;;;5077164;28;20417;-61
2024/03/16 10:57:49;;;;;;;1.07;0.90;;;11.40;99.90;;;;;;5095359;28;20971;-60
2024/03/16 11:00:29;;;;;;;3.87;1.03;;;11.60;99.90;;;;;;5094993;28;20403;-60
2024/03/16 11:03:01;;;;;;;2.63;1.70;;;11.50;99.90;;;;;;5095337;28;20819;-61
2024/03/16 11:05:35;;;;;;;1.13;0.80;;;11.40;99.90;;;;;;5095216;28;20417;-60
2024/03/16 11:08:23;;;;;;;3.03;0.90;;;11.50;99.90;;;;;;5095398;28;20954;-61
2024/03/16 11:10:49;;;;;;;0.70;0.70;;;11.30;99.90;;;;;;5095241;28;20519;-58
2024/03/16 11:13:16;;;;;;;3.50;0.80;;;11.30;99.90;;;;;;5095177;28;20450;-60
2024/03/16 11:15:44;;;;;;;0.80;0.80;;;11.00;99.90;;;;;;5095060;28;20441;-60
2024/03/16 11:18:16;;;;;;;1.43;0.63;;;11.00;99.90;;;;;;5094954;28;20875;-60
2024/03/16 11:20:53;;;;;;;1.17;1.03;;;10.90;99.90;;;;;;5094782;28;20407;-60
2024/03/16 11:23:32;;;;;;;1.10;1.03;;;11.30;99.90;;;;;;5095105;28;20406;-60
2024/03/16 11:26:27;;;;;;;2.73;1.43;;;11.10;99.90;;;;;;5094820;28;20936;-60
2024/03/16 11:29:03;;;;;;;3.50;2.13;;;10.90;99.90;;;;;;5085602;28;20729;-61
2024/03/16 11:31:39;;;;;;;1.97;1.03;;;10.80;99.90;;;;;;5094930;28;20478;-60
2024/03/16 11:34:09;;;;;;;1.47;1.20;;;10.70;99.90;;;;;;5094816;28;20398;-60
2024/03/16 11:36:38;;;;;;;2.60;0.97;;;10.60;99.90;;;;;;5094949;28;20815;-61
2024/03/16 11:39:12;;;;;;;1.83;1.10;;;10.60;99.90;;;;;;5093944;28;20584;-61
2024/03/16 11:41:45;;;;;;;1.80;1.02;;;10.60;99.90;;;;;;5094743;28;20398;-61
2024/03/16 11:44:14;;;;;;;1.70;1.00;;;10.70;99.90;;;;;;5094681;28;20177;-60
2024/03/16 11:46:41;;;;;;;0.60;0.50;;;10.80;99.90;;;;;;5094956;28;20423;-60
2024/03/16 11:49:11;;;;;;;3.55;1.00;;;10.80;99.90;;;;;;5094222;28;20968;-61
2024/03/16 11:51:37;;;;;;;1.13;0.93;;;10.80;99.90;;;;;;5094435;28;20262;-61
2024/03/16 11:54:10;;;;;;;0.60;0.50;;;11.00;99.90;;;;;;5094474;28;20423;-61
2024/03/16 11:56:36;;;;;;;1.53;0.70;;;11.10;99.90;;;;;;5094257;28;20439;-61
2024/03/16 11:59:05;;;;;;;0.83;0.80;;;11.00;99.90;;;;;;5075595;28;21002;-63
2024/03/16 12:01:33;;;;;;;1.10;1.00;;;11.10;99.90;;;;;;5094250;28;20411;-61
2024/03/16 12:04:01;;;;;;;1.90;0.97;;;11.30;99.90;;;;;;5094207;28;20403;-61
2024/03/16 12:06:27;;;;;;;3.13;1.27;;;11.50;99.90;;;;;;5094263;28;20517;-62
2024/03/16 12:08:53;;;;;;;2.30;0.77;;;11.80;99.90;;;;;;5093916;28;20461;-59
2024/03/16 12:11:20;;;;;;;3.23;1.47;;;11.90;99.90;;;;;;5094147;28;20463;-60
2024/03/16 12:13:46;;;;;;;3.70;0.90;;;12.00;99.90;;;;;;5093902;28;20176;-60
2024/03/16 12:16:12;;;;;;;1.63;1.03;;;11.90;99.80;;;;;;5093893;28;20454;-60
2024/03/16 12:18:39;;;;;;;1.00;1.00;;;11.90;99.20;;;;;;5093479;28;20493;-60
2024/03/16 12:21:06;;;;;;;1.50;0.60;;;11.90;99.90;;;;;;5093979;28;20414;-61
2024/03/16 12:23:35;;;;;;;0.60;0.60;;;12.00;99.90;;;;;;5093638;28;20931;-61
2024/03/16 12:26:01;;;;;;;0.70;0.70;;;12.30;99.90;;;;;;5093601;28;20435;-61
2024/03/16 12:28:29;;;;;;;0.60;0.60;;;12.80;98.80;;;;;;5093424;28;20425;-61
2024/03/16 12:30:54;;;;;;;2.23;0.80;;;12.90;97.90;;;;;;5093692;28;20901;-61
2024/03/16 12:33:20;;;;;;;0.70;0.70;;;13.10;98.70;;;;;;5093740;28;20471;-61
2024/03/16 12:35:46;;;;;;;1.53;0.50;;;12.90;97.80;;;;;;5093523;28;20446;-61
2024/03/16 12:38:11;;;;;;;1.63;0.60;;;12.80;98.70;;;;;;5093251;28;20188;-61
2024/03/16 12:40:38;;;;;;;1.57;1.13;;;12.80;98.40;;;;;;5093663;28;20169;-62
2024/03/16 12:43:08;;;;;;;1.53;1.13;;;12.90;98.20;;;;;;5093880;28;20198;-61
2024/03/16 12:45:34;;;;;;;4.10;0.73;;;13.20;97.90;;;;;;5093472;28;20518;-61
2024/03/16 12:48:00;;;;;;;2.20;0.50;;;13.40;97.40;;;;;;5093177;28;20979;-61
2024/03/16 12:50:26;;;;;;;0.60;0.60;;;13.40;97.20;;;;;;5093088;28;20466;-60
2024/03/16 12:52:52;;;;;;;1.37;0.93;;;13.40;96.60;;;;;;5092641;28;20409;-60
2024/03/16 12:55:18;;;;;;;6.17;1.00;;;13.40;99.90;;;;;;5093211;28;20399;-60
2024/03/16 12:57:47;;;;;;;3.53;0.97;;;13.10;96.80;;;;;;5093069;28;20444;-60
2024/03/16 13:00:17;;;;;;;5.23;0.80;;;13.00;97.30;;;;;;5093272;28;20775;-61